sensor_id;sensor_type;location;lat;lon;timestamp;temperature;humidity
39099;DHT22;24844;52.380;7.018;2023-03-01T00:02:02;-0.40;99.90
39099;DHT22;24844;52.380;7.018;2023-03-01T00:04:27;-0.70;99.90
39099;DHT22;24844;52.380;7.018;2023-03-01T00:06:53;-0.80;99.90
39099;DHT22;24844;52.380;7.018;2023-03-01T00:09:19;-0.80;99.90
39099;DHT22;24844;52.380;7.018;2023-03-01T00:11:45;-0.80;99.90
39099;DHT22;24844;52.380;7.018;2023-03-01T00:14:11;-0.80;99.90
39099;DHT22;24844;52.380;7.018;2023-03-01T00:16:39;-0.80;99.90
39099;DHT22;24844;52.380;7.018;2023-03-01T00:19:05;-0.80;99.90
39099;DHT22;24844;52.380;7.018;2023-03-01T00:21:31;-0.90;99.90
39099;DHT22;24844;52.380;7.018;2023-03-01T00:23:57;-0.90;99.90
39099;DHT22;24844;52.380;7.018;2023-03-01T00:26:24;-0.90;99.90
39099;DHT22;24844;52.380;7.018;2023-03-01T00:28:50;-0.90;99.90
39099;DHT22;24844;52.380;7.018;2023-03-01T00:31:19;-1.00;99.90
39099;DHT22;24844;52.380;7.018;2023-03-01T00:33:46;-1.00;99.90
39099;DHT22;24844;52.380;7.018;2023-03-01T00:36:13;-1.10;99.90
39099;DHT22;24844;52.380;7.018;2023-03-01T00:38:42;-1.20;99.90
39099;DHT22;24844;52.380;7.018;2023-03-01T00:41:10;-1.30;99.90
39099;DHT22;24844;52.380;7.018;2023-03-01T00:43:36;-1.30;99.90
39099;DHT22;24844;52.380;7.018;2023-03-01T00:46:07;-1.40;99.90
39099;DHT22;24844;52.380;7.018;2023-03-01T00:48:33;-1.50;99.90
39099;DHT22;24844;52.380;7.018;2023-03-01T00:51:16;-1.50;99.90
39099;DHT22;24844;52.380;7.018;2023-03-01T00:53:42;-1.40;99.90
39099;DHT22;24844;52.380;7.018;2023-03-01T00:56:10;-1.40;99.90
39099;DHT22;24844;52.380;7.018;2023-03-01T00:58:36;-1.40;99.90
39099;DHT22;24844;52.380;7.018;2023-03-01T01:01:18;-1.20;99.90
39099;DHT22;24844;52.380;7.018;2023-03-01T01:03:49;-1.20;99.90
39099;DHT22;24844;52.380;7.018;2023-03-01T01:06:30;-1.30;99.90
39099;DHT22;24844;52.380;7.018;2023-03-01T01:08:56;-1.30;99.90
39099;DHT22;24844;52.380;7.018;2023-03-01T01:11:25;-1.40;99.90
39099;DHT22;24844;52.380;7.018;2023-03-01T01:13:51;-1.40;99.90
39099;DHT22;24844;52.380;7.018;2023-03-01T01:16:18;-1.40;99.90
39099;DHT22;24844;52.380;7.018;2023-03-01T01:18:44;-1.40;99.90
39099;DHT22;24844;52.380;7.018;2023-03-01T01:21:12;-1.40;99.90
39099;DHT22;24844;52.380;7.018;2023-03-01T01:23:39;-1.40;99.90
39099;DHT22;24844;52.380;7.018;2023-03-01T01:26:11;-1.50;99.90
39099;DHT22;24844;52.380;7.018;2023-03-01T01:28:37;-1.50;99.90
39099;DHT22;24844;52.380;7.018;2023-03-01T01:31:03;-1.60;99.90
39099;DHT22;24844;52.380;7.018;2023-03-01T01:33:29;-1.60;99.90
39099;DHT22;24844;52.380;7.018;2023-03-01T01:35:54;-1.60;99.90
39099;DHT22;24844;52.380;7.018;2023-03-01T01:38:20;-1.70;99.90
39099;DHT22;24844;52.380;7.018;2023-03-01T01:40:47;-1.70;99.90
39099;DHT22;24844;52.380;7.018;2023-03-01T01:43:25;-1.70;99.90
39099;DHT22;24844;52.380;7.018;2023-03-01T01:45:55;-1.70;99.90
39099;DHT22;24844;52.380;7.018;2023-03-01T01:48:24;-1.70;99.90
39099;DHT22;24844;52.380;7.018;2023-03-01T01:50:57;-1.80;99.90
39099;DHT22;24844;52.380;7.018;2023-03-01T01:53:24;-1.80;99.90
39099;DHT22;24844;52.380;7.018;2023-03-01T01:55:55;-1.80;99.90
39099;DHT22;24844;52.380;7.018;2023-03-01T01:58:24;-1.80;99.90
39099;DHT22;24844;52.380;7.018;2023-03-01T02:00:50;-1.90;99.90
39099;DHT22;24844;52.380;7.018;2023-03-01T02:03:23;-1.90;99.90
39099;DHT22;24844;52.380;7.018;2023-03-01T02:06:17;-1.90;99.90
39099;DHT22;24844;52.380;7.018;2023-03-01T02:08:44;-1.90;99.90
39099;DHT22;24844;52.380;7.018;2023-03-01T02:11:12;-1.80;99.90
39099;DHT22;24844;52.380;7.018;2023-03-01T02:13:40;-1.90;99.90
39099;DHT22;24844;52.380;7.018;2023-03-01T02:16:11;-1.90;99.90
39099;DHT22;24844;52.380;7.018;2023-03-01T02:18:39;-1.90;99.90
39099;DHT22;24844;52.380;7.018;2023-03-01T02:21:22;-2.00;99.90
39099;DHT22;24844;52.380;7.018;2023-03-01T02:23:50;-2.00;99.90
39099;DHT22;24844;52.380;7.018;2023-03-01T02:26:36;-2.00;99.90
39099;DHT22;24844;52.380;7.018;2023-03-01T02:29:06;-2.00;99.90
39099;DHT22;24844;52.380;7.018;2023-03-01T02:31:31;-2.10;99.90
39099;DHT22;24844;52.380;7.018;2023-03-01T02:34:21;-2.10;99.90
39099;DHT22;24844;52.380;7.018;2023-03-01T02:36:49;-2.10;99.90
39099;DHT22;24844;52.380;7.018;2023-03-01T02:39:19;-2.10;99.90
39099;DHT22;24844;52.380;7.018;2023-03-01T02:41:49;-2.10;99.90
39099;DHT22;24844;52.380;7.018;2023-03-01T02:44:15;-2.10;99.90
39099;DHT22;24844;52.380;7.018;2023-03-01T02:46:49;-2.10;99.90
39099;DHT22;24844;52.380;7.018;2023-03-01T02:49:20;-2.10;99.90
39099;DHT22;24844;52.380;7.018;2023-03-01T02:54:23;-2.10;99.90
39099;DHT22;24844;52.380;7.018;2023-03-01T02:56:51;-2.20;99.90
39099;DHT22;24844;52.380;7.018;2023-03-01T02:59:19;-2.20;99.90
39099;DHT22;24844;52.380;7.018;2023-03-01T03:01:45;-2.30;99.90
39099;DHT22;24844;52.380;7.018;2023-03-01T03:04:15;-2.10;99.90
39099;DHT22;24844;52.380;7.018;2023-03-01T03:06:45;-2.10;99.90
39099;DHT22;24844;52.380;7.018;2023-03-01T03:09:12;-2.20;99.90
39099;DHT22;24844;52.380;7.018;2023-03-01T03:11:38;-2.20;99.90
39099;DHT22;24844;52.380;7.018;2023-03-01T03:14:09;-2.10;99.90
39099;DHT22;24844;52.380;7.018;2023-03-01T03:16:44;-2.10;99.90
39099;DHT22;24844;52.380;7.018;2023-03-01T03:19:10;-2.10;99.90
39099;DHT22;24844;52.380;7.018;2023-03-01T03:21:36;-2.10;99.90
39099;DHT22;24844;52.380;7.018;2023-03-01T03:24:03;-2.10;99.90
39099;DHT22;24844;52.380;7.018;2023-03-01T03:26:29;-2.10;99.90
39099;DHT22;24844;52.380;7.018;2023-03-01T03:28:55;-2.00;99.90
39099;DHT22;24844;52.380;7.018;2023-03-01T03:31:20;-2.10;99.90
39099;DHT22;24844;52.380;7.018;2023-03-01T03:33:46;-2.40;99.90
39099;DHT22;24844;52.380;7.018;2023-03-01T03:36:16;-2.30;99.90
39099;DHT22;24844;52.380;7.018;2023-03-01T03:38:43;-2.20;99.90
39099;DHT22;24844;52.380;7.018;2023-03-01T03:41:09;-2.10;99.90
39099;DHT22;24844;52.380;7.018;2023-03-01T03:43:37;-2.10;99.90
39099;DHT22;24844;52.380;7.018;2023-03-01T03:46:03;-2.00;99.90
39099;DHT22;24844;52.380;7.018;2023-03-01T03:48:41;-2.10;99.90
39099;DHT22;24844;52.380;7.018;2023-03-01T03:51:13;-2.40;99.90
39099;DHT22;24844;52.380;7.018;2023-03-01T03:53:39;-2.60;99.90
39099;DHT22;24844;52.380;7.018;2023-03-01T03:56:05;-2.40;99.90
39099;DHT22;24844;52.380;7.018;2023-03-01T03:58:31;-2.30;99.90
39099;DHT22;24844;52.380;7.018;2023-03-01T04:00:57;-2.30;99.90
39099;DHT22;24844;52.380;7.018;2023-03-01T04:03:24;-2.30;99.90
39099;DHT22;24844;52.380;7.018;2023-03-01T04:05:51;-2.40;99.90
39099;DHT22;24844;52.380;7.018;2023-03-01T04:08:21;-2.40;99.90
39099;DHT22;24844;52.380;7.018;2023-03-01T04:10:50;-2.40;99.90
39099;DHT22;24844;52.380;7.018;2023-03-01T04:13:21;-2.30;99.90
39099;DHT22;24844;52.380;7.018;2023-03-01T04:15:49;-2.30;99.90
39099;DHT22;24844;52.380;7.018;2023-03-01T04:18:16;-2.30;99.90
39099;DHT22;24844;52.380;7.018;2023-03-01T04:20:43;-2.20;99.90
39099;DHT22;24844;52.380;7.018;2023-03-01T04:25:58;-2.20;99.90
39099;DHT22;24844;52.380;7.018;2023-03-01T04:28:25;-2.30;99.90
39099;DHT22;24844;52.380;7.018;2023-03-01T04:30:52;-2.40;99.90
39099;DHT22;24844;52.380;7.018;2023-03-01T04:33:18;-2.50;99.90
39099;DHT22;24844;52.380;7.018;2023-03-01T04:35:44;-2.50;99.90
39099;DHT22;24844;52.380;7.018;2023-03-01T04:38:10;-2.50;99.90
39099;DHT22;24844;52.380;7.018;2023-03-01T04:40:36;-2.50;99.90
39099;DHT22;24844;52.380;7.018;2023-03-01T04:43:02;-2.50;99.90
39099;DHT22;24844;52.380;7.018;2023-03-01T04:45:28;-2.50;99.90
39099;DHT22;24844;52.380;7.018;2023-03-01T04:47:53;-2.40;99.90
39099;DHT22;24844;52.380;7.018;2023-03-01T04:50:19;-2.50;99.90
39099;DHT22;24844;52.380;7.018;2023-03-01T04:52:49;-2.60;99.90
39099;DHT22;24844;52.380;7.018;2023-03-01T04:55:15;-2.60;99.90
39099;DHT22;24844;52.380;7.018;2023-03-01T04:57:41;-2.60;99.90
39099;DHT22;24844;52.380;7.018;2023-03-01T05:00:09;-2.70;99.90
39099;DHT22;24844;52.380;7.018;2023-03-01T05:02:54;-2.70;99.90
39099;DHT22;24844;52.380;7.018;2023-03-01T05:05:29;-2.70;99.90
39099;DHT22;24844;52.380;7.018;2023-03-01T05:07:58;-2.70;99.90
39099;DHT22;24844;52.380;7.018;2023-03-01T05:10:25;-2.70;99.90
39099;DHT22;24844;52.380;7.018;2023-03-01T05:12:51;-2.70;99.90
39099;DHT22;24844;52.380;7.018;2023-03-01T05:15:19;-2.80;99.90
39099;DHT22;24844;52.380;7.018;2023-03-01T05:17:47;-2.80;99.90
39099;DHT22;24844;52.380;7.018;2023-03-01T05:20:13;-2.90;99.90
39099;DHT22;24844;52.380;7.018;2023-03-01T05:22:39;-2.90;99.90
39099;DHT22;24844;52.380;7.018;2023-03-01T05:25:05;-2.80;99.90
39099;DHT22;24844;52.380;7.018;2023-03-01T05:27:32;-2.80;99.90
39099;DHT22;24844;52.380;7.018;2023-03-01T05:29:58;-2.80;99.90
39099;DHT22;24844;52.380;7.018;2023-03-01T05:32:23;-2.90;99.90
39099;DHT22;24844;52.380;7.018;2023-03-01T05:34:49;-2.80;99.90
39099;DHT22;24844;52.380;7.018;2023-03-01T05:37:15;-2.90;99.90
39099;DHT22;24844;52.380;7.018;2023-03-01T05:39:40;-2.90;99.90
39099;DHT22;24844;52.380;7.018;2023-03-01T05:42:10;-2.80;99.90
39099;DHT22;24844;52.380;7.018;2023-03-01T05:44:36;-2.90;99.90
39099;DHT22;24844;52.380;7.018;2023-03-01T05:47:01;-2.90;99.90
39099;DHT22;24844;52.380;7.018;2023-03-01T05:49:27;-2.90;99.90
39099;DHT22;24844;52.380;7.018;2023-03-01T05:51:53;-2.90;99.90
39099;DHT22;24844;52.380;7.018;2023-03-01T05:54:22;-2.90;99.90
39099;DHT22;24844;52.380;7.018;2023-03-01T05:56:47;-2.90;99.90
39099;DHT22;24844;52.380;7.018;2023-03-01T05:59:13;-3.00;99.90
39099;DHT22;24844;52.380;7.018;2023-03-01T06:01:40;-3.00;99.90
39099;DHT22;24844;52.380;7.018;2023-03-01T06:04:06;-3.10;99.90
39099;DHT22;24844;52.380;7.018;2023-03-01T06:06:35;-3.10;99.90
39099;DHT22;24844;52.380;7.018;2023-03-01T06:09:03;-3.10;99.90
39099;DHT22;24844;52.380;7.018;2023-03-01T06:11:29;-3.10;99.90
39099;DHT22;24844;52.380;7.018;2023-03-01T06:13:54;-3.10;99.90
39099;DHT22;24844;52.380;7.018;2023-03-01T06:16:20;-3.00;99.90
39099;DHT22;24844;52.380;7.018;2023-03-01T06:18:45;-2.90;99.90
39099;DHT22;24844;52.380;7.018;2023-03-01T06:21:11;-2.90;99.90
39099;DHT22;24844;52.380;7.018;2023-03-01T06:23:36;-2.90;99.90
39099;DHT22;24844;52.380;7.018;2023-03-01T06:26:05;-3.00;99.90
39099;DHT22;24844;52.380;7.018;2023-03-01T06:28:31;-3.10;99.90
39099;DHT22;24844;52.380;7.018;2023-03-01T06:30:57;-3.40;99.90
39099;DHT22;24844;52.380;7.018;2023-03-01T06:33:22;-3.60;99.90
39099;DHT22;24844;52.380;7.018;2023-03-01T06:35:50;-3.70;99.90
39099;DHT22;24844;52.380;7.018;2023-03-01T06:38:16;-3.70;99.90
39099;DHT22;24844;52.380;7.018;2023-03-01T06:40:44;-3.60;99.90
39099;DHT22;24844;52.380;7.018;2023-03-01T06:43:10;-3.30;99.90
39099;DHT22;24844;52.380;7.018;2023-03-01T06:45:36;-3.10;99.90
39099;DHT22;24844;52.380;7.018;2023-03-01T06:48:06;-2.90;99.90
39099;DHT22;24844;52.380;7.018;2023-03-01T06:50:33;-2.90;99.90
39099;DHT22;24844;52.380;7.018;2023-03-01T06:52:58;-2.80;99.90
39099;DHT22;24844;52.380;7.018;2023-03-01T06:55:24;-2.70;99.90
39099;DHT22;24844;52.380;7.018;2023-03-01T06:58:00;-2.70;99.90
39099;DHT22;24844;52.380;7.018;2023-03-01T07:00:27;-2.70;99.90
39099;DHT22;24844;52.380;7.018;2023-03-01T07:02:53;-2.60;99.90
39099;DHT22;24844;52.380;7.018;2023-03-01T07:05:19;-2.60;99.90
39099;DHT22;24844;52.380;7.018;2023-03-01T07:07:45;-2.70;99.90
39099;DHT22;24844;52.380;7.018;2023-03-01T07:10:11;-2.60;99.90
39099;DHT22;24844;52.380;7.018;2023-03-01T07:12:37;-2.60;99.90
39099;DHT22;24844;52.380;7.018;2023-03-01T07:15:03;-2.40;99.90
39099;DHT22;24844;52.380;7.018;2023-03-01T07:17:29;-2.30;99.90
39099;DHT22;24844;52.380;7.018;2023-03-01T07:19:56;-2.40;99.90
39099;DHT22;24844;52.380;7.018;2023-03-01T07:22:21;-2.20;99.90
39099;DHT22;24844;52.380;7.018;2023-03-01T07:24:47;-2.20;99.90
39099;DHT22;24844;52.380;7.018;2023-03-01T07:27:13;-2.00;99.90
39099;DHT22;24844;52.380;7.018;2023-03-01T07:29:38;-1.80;99.90
39099;DHT22;24844;52.380;7.018;2023-03-01T07:32:05;-1.70;99.90
39099;DHT22;24844;52.380;7.018;2023-03-01T07:34:30;-1.60;99.90
39099;DHT22;24844;52.380;7.018;2023-03-01T07:36:56;-1.40;99.90
39099;DHT22;24844;52.380;7.018;2023-03-01T07:39:22;-1.40;99.90
39099;DHT22;24844;52.380;7.018;2023-03-01T07:41:50;-1.30;99.90
39099;DHT22;24844;52.380;7.018;2023-03-01T07:44:16;-1.20;99.90
39099;DHT22;24844;52.380;7.018;2023-03-01T07:46:42;-1.00;99.90
39099;DHT22;24844;52.380;7.018;2023-03-01T07:49:09;-0.90;99.90
39099;DHT22;24844;52.380;7.018;2023-03-01T07:51:34;-0.80;99.90
39099;DHT22;24844;52.380;7.018;2023-03-01T07:54:00;-0.70;99.90
39099;DHT22;24844;52.380;7.018;2023-03-01T07:56:25;-0.70;99.90
39099;DHT22;24844;52.380;7.018;2023-03-01T07:58:51;-0.60;99.90
39099;DHT22;24844;52.380;7.018;2023-03-01T08:01:19;-0.40;99.90
39099;DHT22;24844;52.380;7.018;2023-03-01T08:03:45;-0.20;99.90
39099;DHT22;24844;52.380;7.018;2023-03-01T08:06:12;-0.10;99.90
39099;DHT22;24844;52.380;7.018;2023-03-01T08:08:38;-0.20;99.90
39099;DHT22;24844;52.380;7.018;2023-03-01T08:11:05;-0.10;99.90
39099;DHT22;24844;52.380;7.018;2023-03-01T08:13:32;0.20;99.90
39099;DHT22;24844;52.380;7.018;2023-03-01T08:16:12;0.40;99.90
39099;DHT22;24844;52.380;7.018;2023-03-01T08:18:38;0.50;99.90
39099;DHT22;24844;52.380;7.018;2023-03-01T08:21:09;0.60;99.90
39099;DHT22;24844;52.380;7.018;2023-03-01T08:23:35;0.70;99.90
39099;DHT22;24844;52.380;7.018;2023-03-01T08:26:05;1.00;99.90
39099;DHT22;24844;52.380;7.018;2023-03-01T08:28:32;1.30;99.90
39099;DHT22;24844;52.380;7.018;2023-03-01T08:30:57;1.60;99.90
39099;DHT22;24844;52.380;7.018;2023-03-01T08:33:23;1.70;99.90
39099;DHT22;24844;52.380;7.018;2023-03-01T08:35:49;2.00;99.90
39099;DHT22;24844;52.380;7.018;2023-03-01T08:38:14;2.60;99.90
39099;DHT22;24844;52.380;7.018;2023-03-01T08:40:40;3.80;99.90
39099;DHT22;24844;52.380;7.018;2023-03-01T08:43:05;5.20;99.90
39099;DHT22;24844;52.380;7.018;2023-03-01T08:45:31;6.60;99.90
39099;DHT22;24844;52.380;7.018;2023-03-01T08:47:57;7.70;99.90
39099;DHT22;24844;52.380;7.018;2023-03-01T08:50:23;8.80;99.90
39099;DHT22;24844;52.380;7.018;2023-03-01T08:52:49;9.70;99.90
39099;DHT22;24844;52.380;7.018;2023-03-01T08:55:15;10.50;96.80
39099;DHT22;24844;52.380;7.018;2023-03-01T08:57:42;11.20;95.20
39099;DHT22;24844;52.380;7.018;2023-03-01T09:00:09;11.80;90.40
39099;DHT22;24844;52.380;7.018;2023-03-01T09:02:35;12.50;90.00
39099;DHT22;24844;52.380;7.018;2023-03-01T09:05:00;13.00;80.20
39099;DHT22;24844;52.380;7.018;2023-03-01T09:07:26;13.50;75.80
39099;DHT22;24844;52.380;7.018;2023-03-01T09:09:53;13.90;70.00
39099;DHT22;24844;52.380;7.018;2023-03-01T09:12:19;14.20;66.90
39099;DHT22;24844;52.380;7.018;2023-03-01T09:14:45;14.40;61.00
39099;DHT22;24844;52.380;7.018;2023-03-01T09:17:10;14.30;60.10
39099;DHT22;24844;52.380;7.018;2023-03-01T09:19:36;14.40;58.40
39099;DHT22;24844;52.380;7.018;2023-03-01T09:22:03;14.60;56.80
39099;DHT22;24844;52.380;7.018;2023-03-01T09:24:29;14.80;56.70
39099;DHT22;24844;52.380;7.018;2023-03-01T09:26:55;14.90;55.10
39099;DHT22;24844;52.380;7.018;2023-03-01T09:29:21;14.60;53.30
39099;DHT22;24844;52.380;7.018;2023-03-01T09:31:47;14.70;52.40
39099;DHT22;24844;52.380;7.018;2023-03-01T09:34:13;14.40;53.10
39099;DHT22;24844;52.380;7.018;2023-03-01T09:36:41;13.40;50.80
39099;DHT22;24844;52.380;7.018;2023-03-01T09:39:07;14.00;52.00
39099;DHT22;24844;52.380;7.018;2023-03-01T09:46:44;15.00;49.60
39099;DHT22;24844;52.380;7.018;2023-03-01T09:49:21;14.50;49.70
39099;DHT22;24844;52.380;7.018;2023-03-01T09:52:13;13.90;50.30
39099;DHT22;24844;52.380;7.018;2023-03-01T09:54:45;13.20;51.20
39099;DHT22;24844;52.380;7.018;2023-03-01T09:57:27;12.70;51.50
39099;DHT22;24844;52.380;7.018;2023-03-01T10:03:11;11.60;52.00
39099;DHT22;24844;52.380;7.018;2023-03-01T10:06:01;11.60;52.10
39099;DHT22;24844;52.380;7.018;2023-03-01T10:08:43;9.70;53.90
39099;DHT22;24844;52.380;7.018;2023-03-01T10:11:36;8.70;58.00
39099;DHT22;24844;52.380;7.018;2023-03-01T10:14:31;9.10;56.70
39099;DHT22;24844;52.380;7.018;2023-03-01T10:17:04;9.70;56.20
39099;DHT22;24844;52.380;7.018;2023-03-01T10:19:41;9.70;56.60
39099;DHT22;24844;52.380;7.018;2023-03-01T10:22:18;9.30;56.30
39099;DHT22;24844;52.380;7.018;2023-03-01T10:24:47;10.00;55.20
39099;DHT22;24844;52.380;7.018;2023-03-01T10:30:36;9.20;55.40
39099;DHT22;24844;52.380;7.018;2023-03-01T10:33:31;8.90;56.00
39099;DHT22;24844;52.380;7.018;2023-03-01T10:35:55;9.50;55.50
39099;DHT22;24844;52.380;7.018;2023-03-01T10:38:21;9.50;55.00
39099;DHT22;24844;52.380;7.018;2023-03-01T10:40:58;9.40;55.60
39099;DHT22;24844;52.380;7.018;2023-03-01T10:43:26;9.30;55.20
39099;DHT22;24844;52.380;7.018;2023-03-01T10:45:53;9.80;54.50
39099;DHT22;24844;52.380;7.018;2023-03-01T10:48:25;9.50;55.00
39099;DHT22;24844;52.380;7.018;2023-03-01T10:56:22;11.00;53.50
39099;DHT22;24844;52.380;7.018;2023-03-01T10:58:58;12.20;51.60
39099;DHT22;24844;52.380;7.018;2023-03-01T11:01:27;12.80;50.10
39099;DHT22;24844;52.380;7.018;2023-03-01T11:06:35;13.50;48.60
39099;DHT22;24844;52.380;7.018;2023-03-01T11:09:15;13.60;47.60
39099;DHT22;24844;52.380;7.018;2023-03-01T11:11:42;14.40;47.50
39099;DHT22;24844;52.380;7.018;2023-03-01T11:16:41;14.70;46.70
39099;DHT22;24844;52.380;7.018;2023-03-01T11:21:53;14.80;45.80
39099;DHT22;24844;52.380;7.018;2023-03-01T11:24:32;14.60;44.90
39099;DHT22;24844;52.380;7.018;2023-03-01T11:27:02;14.80;46.40
39099;DHT22;24844;52.380;7.018;2023-03-01T11:32:21;15.60;43.90
39099;DHT22;24844;52.380;7.018;2023-03-01T11:35:14;15.50;43.40
39099;DHT22;24844;52.380;7.018;2023-03-01T11:41:16;13.10;47.50
39099;DHT22;24844;52.380;7.018;2023-03-01T11:43:35;12.10;48.00
39099;DHT22;24844;52.380;7.018;2023-03-01T11:49:36;10.50;50.40
39099;DHT22;24844;52.380;7.018;2023-03-01T11:52:30;9.50;52.60
39099;DHT22;24844;52.380;7.018;2023-03-01T12:11:39;8.50;54.10
39099;DHT22;24844;52.380;7.018;2023-03-01T12:14:23;8.70;54.30
39099;DHT22;24844;52.380;7.018;2023-03-01T12:17:20;8.60;54.40
39099;DHT22;24844;52.380;7.018;2023-03-01T12:26:10;8.30;56.00
39099;DHT22;24844;52.380;7.018;2023-03-01T12:37:11;8.30;56.30
39099;DHT22;24844;52.380;7.018;2023-03-01T12:50:59;8.50;55.50
39099;DHT22;24844;52.380;7.018;2023-03-01T12:53:41;8.60;55.40
39099;DHT22;24844;52.380;7.018;2023-03-01T12:56:19;8.60;55.50
39099;DHT22;24844;52.380;7.018;2023-03-01T12:59:19;8.50;55.40
39099;DHT22;24844;52.380;7.018;2023-03-01T13:07:35;8.60;56.10
39099;DHT22;24844;52.380;7.018;2023-03-01T13:10:15;8.40;57.00
39099;DHT22;24844;52.380;7.018;2023-03-01T13:13:00;8.20;57.10
39099;DHT22;24844;52.380;7.018;2023-03-01T13:15:32;8.20;56.40
39099;DHT22;24844;52.380;7.018;2023-03-01T13:18:03;8.50;56.30
39099;DHT22;24844;52.380;7.018;2023-03-01T13:20:45;8.70;55.40
39099;DHT22;24844;52.380;7.018;2023-03-01T13:31:00;8.80;54.80
39099;DHT22;24844;52.380;7.018;2023-03-01T13:35:51;9.10;54.00
39099;DHT22;24844;52.380;7.018;2023-03-01T13:38:47;8.80;54.60
39099;DHT22;24844;52.380;7.018;2023-03-01T13:41:17;8.50;54.60
39099;DHT22;24844;52.380;7.018;2023-03-01T13:43:59;8.80;54.00
39099;DHT22;24844;52.380;7.018;2023-03-01T13:46:24;8.90;54.30
39099;DHT22;24844;52.380;7.018;2023-03-01T13:48:53;9.20;54.40
39099;DHT22;24844;52.380;7.018;2023-03-01T13:51:27;9.10;54.60
39099;DHT22;24844;52.380;7.018;2023-03-01T13:53:55;8.90;55.20
39099;DHT22;24844;52.380;7.018;2023-03-01T13:56:26;8.80;54.80
39099;DHT22;24844;52.380;7.018;2023-03-01T13:58:53;8.80;56.00
39099;DHT22;24844;52.380;7.018;2023-03-01T14:03:50;9.30;55.70
39099;DHT22;24844;52.380;7.018;2023-03-01T14:06:35;8.80;54.50
39099;DHT22;24844;52.380;7.018;2023-03-01T14:09:15;8.70;54.50
39099;DHT22;24844;52.380;7.018;2023-03-01T14:14:48;9.30;54.50
39099;DHT22;24844;52.380;7.018;2023-03-01T14:18:00;8.60;56.10
39099;DHT22;24844;52.380;7.018;2023-03-01T14:20:24;8.50;55.50
39099;DHT22;24844;52.380;7.018;2023-03-01T14:23:02;8.30;56.00
39099;DHT22;24844;52.380;7.018;2023-03-01T14:25:36;8.70;56.50
39099;DHT22;24844;52.380;7.018;2023-03-01T14:28:17;9.30;56.30
39099;DHT22;24844;52.380;7.018;2023-03-01T14:30:51;9.40;56.40
39099;DHT22;24844;52.380;7.018;2023-03-01T14:35:59;9.60;55.30
39099;DHT22;24844;52.380;7.018;2023-03-01T14:38:46;9.20;56.60
39099;DHT22;24844;52.380;7.018;2023-03-01T14:41:21;9.30;56.40
39099;DHT22;24844;52.380;7.018;2023-03-01T14:43:50;9.50;55.80
39099;DHT22;24844;52.380;7.018;2023-03-01T14:46:21;9.30;55.80
39099;DHT22;24844;52.380;7.018;2023-03-01T14:48:53;9.70;55.70
39099;DHT22;24844;52.380;7.018;2023-03-01T14:51:19;9.50;56.00
39099;DHT22;24844;52.380;7.018;2023-03-01T14:53:45;9.30;55.90
39099;DHT22;24844;52.380;7.018;2023-03-01T14:56:15;9.30;56.70
39099;DHT22;24844;52.380;7.018;2023-03-01T14:58:43;9.20;56.90
39099;DHT22;24844;52.380;7.018;2023-03-01T15:01:14;9.40;56.40
39099;DHT22;24844;52.380;7.018;2023-03-01T15:03:43;9.10;56.50
39099;DHT22;24844;52.380;7.018;2023-03-01T15:06:09;9.10;56.70
39099;DHT22;24844;52.380;7.018;2023-03-01T15:08:42;9.40;56.20
39099;DHT22;24844;52.380;7.018;2023-03-01T15:11:32;9.20;56.30
39099;DHT22;24844;52.380;7.018;2023-03-01T15:13:59;8.90;56.80
39099;DHT22;24844;52.380;7.018;2023-03-01T15:16:27;9.00;56.60
39099;DHT22;24844;52.380;7.018;2023-03-01T15:19:03;8.80;57.20
39099;DHT22;24844;52.380;7.018;2023-03-01T15:21:37;9.10;56.80
39099;DHT22;24844;52.380;7.018;2023-03-01T15:24:17;9.20;56.80
39099;DHT22;24844;52.380;7.018;2023-03-01T15:29:22;9.20;55.80
39099;DHT22;24844;52.380;7.018;2023-03-01T15:32:03;9.30;55.30
39099;DHT22;24844;52.380;7.018;2023-03-01T15:34:36;9.30;55.30
39099;DHT22;24844;52.380;7.018;2023-03-01T15:37:32;9.20;55.30
39099;DHT22;24844;52.380;7.018;2023-03-01T15:39:57;9.20;56.30
39099;DHT22;24844;52.380;7.018;2023-03-01T15:48:15;9.20;56.70
39099;DHT22;24844;52.380;7.018;2023-03-01T15:50:43;9.00;57.80
39099;DHT22;24844;52.380;7.018;2023-03-01T15:53:13;9.30;56.90
39099;DHT22;24844;52.380;7.018;2023-03-01T15:55:40;9.50;56.60
39099;DHT22;24844;52.380;7.018;2023-03-01T15:58:10;9.60;56.40
39099;DHT22;24844;52.380;7.018;2023-03-01T16:00:37;9.60;56.30
39099;DHT22;24844;52.380;7.018;2023-03-01T16:03:04;9.80;56.10
39099;DHT22;24844;52.380;7.018;2023-03-01T16:05:33;9.60;56.40
39099;DHT22;24844;52.380;7.018;2023-03-01T16:08:00;9.60;56.60
39099;DHT22;24844;52.380;7.018;2023-03-01T16:10:26;9.50;56.80
39099;DHT22;24844;52.380;7.018;2023-03-01T16:12:51;9.40;57.10
39099;DHT22;24844;52.380;7.018;2023-03-01T16:17:49;9.30;56.80
39099;DHT22;24844;52.380;7.018;2023-03-01T16:20:15;9.10;57.20
39099;DHT22;24844;52.380;7.018;2023-03-01T16:22:42;8.80;57.70
39099;DHT22;24844;52.380;7.018;2023-03-01T16:25:10;8.90;57.90
39099;DHT22;24844;52.380;7.018;2023-03-01T16:27:36;8.70;58.00
39099;DHT22;24844;52.380;7.018;2023-03-01T16:30:03;8.60;58.30
39099;DHT22;24844;52.380;7.018;2023-03-01T16:32:29;8.60;58.40
39099;DHT22;24844;52.380;7.018;2023-03-01T16:34:55;8.60;58.40
39099;DHT22;24844;52.380;7.018;2023-03-01T16:37:20;8.50;58.60
39099;DHT22;24844;52.380;7.018;2023-03-01T16:39:47;8.60;58.60
39099;DHT22;24844;52.380;7.018;2023-03-01T16:42:15;8.40;58.90
39099;DHT22;24844;52.380;7.018;2023-03-01T16:44:41;8.30;59.10
39099;DHT22;24844;52.380;7.018;2023-03-01T16:47:07;8.20;59.90
39099;DHT22;24844;52.380;7.018;2023-03-01T16:49:32;8.10;59.80
39099;DHT22;24844;52.380;7.018;2023-03-01T16:51:58;8.10;59.70
39099;DHT22;24844;52.380;7.018;2023-03-01T16:54:24;7.90;60.20
39099;DHT22;24844;52.380;7.018;2023-03-01T16:56:50;7.80;60.60
39099;DHT22;24844;52.380;7.018;2023-03-01T16:59:15;7.80;60.60
39099;DHT22;24844;52.380;7.018;2023-03-01T17:01:43;7.60;60.80
39099;DHT22;24844;52.380;7.018;2023-03-01T17:04:12;7.50;61.40
39099;DHT22;24844;52.380;7.018;2023-03-01T17:06:38;7.50;61.30
39099;DHT22;24844;52.380;7.018;2023-03-01T17:09:03;7.30;61.70
39099;DHT22;24844;52.380;7.018;2023-03-01T17:11:29;7.20;62.10
39099;DHT22;24844;52.380;7.018;2023-03-01T17:13:54;7.20;62.30
39099;DHT22;24844;52.380;7.018;2023-03-01T17:16:20;7.20;62.40
39099;DHT22;24844;52.380;7.018;2023-03-01T17:18:46;7.10;62.70
39099;DHT22;24844;52.380;7.018;2023-03-01T17:21:13;7.00;63.10
39099;DHT22;24844;52.380;7.018;2023-03-01T17:23:41;7.00;63.10
39099;DHT22;24844;52.380;7.018;2023-03-01T17:26:08;7.10;63.30
39099;DHT22;24844;52.380;7.018;2023-03-01T17:28:35;6.90;63.70
39099;DHT22;24844;52.380;7.018;2023-03-01T17:31:02;6.70;64.30
39099;DHT22;24844;52.380;7.018;2023-03-01T17:33:28;6.60;64.60
39099;DHT22;24844;52.380;7.018;2023-03-01T17:35:56;6.40;64.90
39099;DHT22;24844;52.380;7.018;2023-03-01T17:38:22;6.30;65.40
39099;DHT22;24844;52.380;7.018;2023-03-01T17:40:48;6.20;65.60
39099;DHT22;24844;52.380;7.018;2023-03-01T17:43:15;6.20;65.40
39099;DHT22;24844;52.380;7.018;2023-03-01T17:45:41;6.20;65.60
39099;DHT22;24844;52.380;7.018;2023-03-01T17:48:12;6.20;65.90
39099;DHT22;24844;52.380;7.018;2023-03-01T17:50:38;6.00;66.00